createdAt,value
2017-11-05T00:00:08.422Z,20.89
2017-11-05T00:00:36.999Z,20.88
2017-11-05T00:01:05.580Z,20.8
2017-11-05T00:01:33.957Z,20.78
2017-11-05T00:02:02.740Z,20.78
2017-11-05T00:02:31.494Z,20.74
2017-11-05T00:03:00.172Z,20.6
2017-11-05T00:03:28.666Z,20.58
2017-11-05T00:03:57.307Z,20.6
2017-11-05T00:04:25.954Z,20.53
2017-11-05T00:04:54.481Z,20.52
2017-11-05T00:05:23.155Z,20.44
2017-11-05T00:05:51.830Z,20.39
2017-11-05T00:06:20.561Z,20.44
2017-11-05T00:06:49.002Z,20.26
2017-11-05T00:07:17.275Z,20.32
2017-11-05T00:07:45.663Z,20.32
2017-11-05T00:08:14.229Z,20.36
2017-11-05T00:08:42.588Z,20.24
2017-11-05T00:09:11.233Z,20.22
2017-11-05T00:09:39.671Z,20.18
2017-11-05T00:10:08.258Z,20.18
2017-11-05T00:10:36.516Z,20.21
2017-11-05T00:11:04.765Z,20.32
2017-11-05T00:11:32.935Z,20.18
2017-11-05T00:12:01.113Z,20.15
2017-11-05T00:12:29.240Z,20.12
2017-11-05T00:12:57.427Z,20.12
2017-11-05T00:13:25.467Z,20.14
2017-11-05T00:13:53.595Z,20.08
2017-11-05T00:14:21.655Z,20.04
2017-11-05T00:14:49.817Z,20.08
2017-11-05T00:15:17.873Z,20.02
2017-11-05T00:15:45.952Z,20.02
2017-11-05T00:16:13.905Z,19.99
2017-11-05T00:16:42.085Z,20
2017-11-05T00:17:10.258Z,19.97
2017-11-05T00:17:38.325Z,19.93
2017-11-05T00:18:06.545Z,19.96
2017-11-05T00:18:34.792Z,19.94
2017-11-05T00:19:03.282Z,19.94
2017-11-05T00:19:31.739Z,19.97
2017-11-05T00:19:59.683Z,19.97
2017-11-05T00:20:27.892Z,19.89
2017-11-05T00:20:56.084Z,19.87
2017-11-05T00:21:24.272Z,19.85
2017-11-05T00:21:52.445Z,19.84
2017-11-05T00:22:20.382Z,19.84
2017-11-05T00:22:48.334Z,19.82
2017-11-05T00:23:16.503Z,19.67
2017-11-05T00:23:44.631Z,19.7
2017-11-05T00:24:12.706Z,19.78
2017-11-05T00:24:40.641Z,19.74
2017-11-05T00:25:08.602Z,19.71
2017-11-05T00:25:36.564Z,19.64
2017-11-05T00:26:05.013Z,19.62
2017-11-05T00:26:33.238Z,19.7
2017-11-05T00:27:01.543Z,19.7
2017-11-05T00:27:29.912Z,19.64
2017-11-05T00:27:58.366Z,19.64
2017-11-05T00:28:26.535Z,19.72
2017-11-05T00:28:54.602Z,19.64
2017-11-05T00:29:22.756Z,19.78
2017-11-05T00:29:50.830Z,19.72
2017-11-05T00:30:18.918Z,19.72
2017-11-05T00:30:47.081Z,19.62
2017-11-05T00:31:15.213Z,19.78
2017-11-05T00:31:43.381Z,19.71
2017-11-05T00:32:11.569Z,19.64
2017-11-05T00:32:40.120Z,19.79
2017-11-05T00:33:08.742Z,19.71
2017-11-05T00:33:37.227Z,19.77
2017-11-05T00:34:05.800Z,19.74
2017-11-05T00:34:34.415Z,19.79
2017-11-05T00:35:03.079Z,19.7
2017-11-05T00:35:31.692Z,19.74
2017-11-05T00:36:00.072Z,19.77
2017-11-05T00:36:28.396Z,19.66
2017-11-05T00:36:56.954Z,19.77
2017-11-05T00:37:25.235Z,19.75
2017-11-05T00:37:53.595Z,19.77
2017-11-05T00:38:21.980Z,19.72
2017-11-05T00:38:50.365Z,19.7
2017-11-05T00:39:18.776Z,19.75
2017-11-05T00:39:47.360Z,19.71
2017-11-05T00:40:15.578Z,19.7
2017-11-05T00:40:44.227Z,19.71
2017-11-05T00:41:12.600Z,19.7
2017-11-05T00:41:41.155Z,19.79
2017-11-05T00:42:09.856Z,19.7
2017-11-05T00:42:37.930Z,19.75
2017-11-05T00:43:06.426Z,19.7
2017-11-05T00:43:34.878Z,19.74
2017-11-05T00:44:03.286Z,19.74
2017-11-05T00:44:32.209Z,19.79
2017-11-05T00:45:00.664Z,19.78
2017-11-05T00:45:29.007Z,19.75
2017-11-05T00:45:57.569Z,19.72
2017-11-05T00:46:26.269Z,19.74
2017-11-05T00:46:54.552Z,19.7
2017-11-05T00:47:22.886Z,19.75
2017-11-05T00:47:51.564Z,19.77
2017-11-05T00:48:20.274Z,19.63
2017-11-05T00:48:48.903Z,19.72
2017-11-05T00:49:17.229Z,19.64
2017-11-05T00:49:45.691Z,19.81
2017-11-05T00:50:14.200Z,19.66
2017-11-05T00:50:42.533Z,19.74
2017-11-05T00:51:10.915Z,19.64
2017-11-05T00:51:39.233Z,19.77
2017-11-05T00:52:07.293Z,19.78
2017-11-05T00:52:35.278Z,19.7
2017-11-05T00:53:03.212Z,19.81
2017-11-05T00:53:31.368Z,19.87
2017-11-05T00:53:59.574Z,19.85
2017-11-05T00:54:27.521Z,19.84
2017-11-05T00:54:55.457Z,19.82
2017-11-05T00:55:23.514Z,19.82
2017-11-05T00:55:51.521Z,19.78
2017-11-05T00:56:19.661Z,19.82
2017-11-05T00:56:47.630Z,19.87
2017-11-05T00:57:15.804Z,19.84
2017-11-05T00:57:43.828Z,19.85
2017-11-05T00:58:12.212Z,19.87
2017-11-05T00:58:40.662Z,19.92
2017-11-05T00:59:09.084Z,19.85
2017-11-05T00:59:37.041Z,19.93
2017-11-05T01:00:05.030Z,19.99
2017-11-05T01:00:33.189Z,20.04
2017-11-05T01:01:01.369Z,20.03
2017-11-05T01:01:29.450Z,19.99
2017-11-05T01:01:57.607Z,20.12
2017-11-05T01:02:25.666Z,20.12
2017-11-05T01:02:53.705Z,20.15
2017-11-05T01:03:21.743Z,20.14
2017-11-05T01:03:49.787Z,20.18
2017-11-05T01:04:17.763Z,20.19
2017-11-05T01:04:45.820Z,20.21
2017-11-05T01:05:14.017Z,20.19
2017-11-05T01:05:42.088Z,20.26
2017-11-05T01:06:10.029Z,20.19
2017-11-05T01:06:38.171Z,20.19
2017-11-05T01:07:06.232Z,20.22
2017-11-05T01:07:34.288Z,20.21
2017-11-05T01:08:02.197Z,20.3
2017-11-05T01:08:30.143Z,20.3
2017-11-05T01:08:58.291Z,20.34
2017-11-05T01:09:26.129Z,20.3
2017-11-05T01:09:54.193Z,20.4
2017-11-05T01:10:22.293Z,20.4
2017-11-05T01:10:50.352Z,20.44
2017-11-05T01:11:18.441Z,20.39
2017-11-05T01:11:46.588Z,20.49
2017-11-05T01:12:14.657Z,20.48
2017-11-05T01:12:42.621Z,20.42
2017-11-05T01:13:10.665Z,20.44
2017-11-05T01:13:38.634Z,20.55
2017-11-05T01:14:06.788Z,20.52
2017-11-05T01:14:34.924Z,20.55
2017-11-05T01:15:02.957Z,20.56
2017-11-05T01:15:30.923Z,20.5
2017-11-05T01:15:59.107Z,20.59
2017-11-05T01:16:26.860Z,20.58
2017-11-05T01:16:54.790Z,20.58
2017-11-05T01:17:22.717Z,20.6
2017-11-05T01:17:50.769Z,20.59
2017-11-05T01:18:18.829Z,20.64
2017-11-05T01:18:46.914Z,20.64
2017-11-05T01:19:14.955Z,20.74
2017-11-05T01:19:42.919Z,20.75
2017-11-05T01:20:10.979Z,20.73
2017-11-05T01:20:39.144Z,20.75
2017-11-05T01:21:07.289Z,20.75
2017-11-05T01:21:35.140Z,20.7
2017-11-05T01:22:03.093Z,20.74
2017-11-05T01:22:31.045Z,20.68
2017-11-05T01:22:59.199Z,20.73
2017-11-05T01:23:27.284Z,20.78
2017-11-05T01:23:55.244Z,20.86
2017-11-05T01:24:23.408Z,20.75
2017-11-05T01:24:51.363Z,20.78
2017-11-05T01:25:19.393Z,20.8
2017-11-05T01:25:47.476Z,20.88
2017-11-05T01:26:15.525Z,20.88
2017-11-05T01:26:43.656Z,20.88
2017-11-05T01:27:11.683Z,20.89
2017-11-05T01:27:40.125Z,20.89
2017-11-05T01:28:08.178Z,20.9
2017-11-05T01:28:36.208Z,20.9
2017-11-05T01:29:04.275Z,20.89
2017-11-05T01:29:32.436Z,20.83
2017-11-05T01:30:00.583Z,20.82
2017-11-05T01:30:28.801Z,20.93
2017-11-05T01:30:56.865Z,20.92
2017-11-05T01:31:24.932Z,20.9
2017-11-05T01:31:52.937Z,20.93
2017-11-05T01:32:20.909Z,20.96
2017-11-05T01:32:49.040Z,21
2017-11-05T01:33:17.343Z,20.93
2017-11-05T01:33:45.464Z,21
2017-11-05T01:34:13.402Z,20.83
2017-11-05T01:34:41.555Z,20.86
2017-11-05T01:35:09.671Z,20.9
2017-11-05T01:35:37.632Z,20.95
2017-11-05T01:36:05.795Z,20.92
2017-11-05T01:36:33.837Z,20.9
2017-11-05T01:37:01.980Z,20.9
2017-11-05T01:37:30.345Z,21.04
2017-11-05T01:37:58.736Z,20.9
2017-11-05T01:38:26.747Z,20.96
2017-11-05T01:38:55.297Z,20.85
2017-11-05T01:39:23.427Z,20.89
2017-11-05T01:39:51.800Z,21
2017-11-05T01:40:19.971Z,20.96
2017-11-05T01:40:47.926Z,20.98
2017-11-05T01:41:16.063Z,21.03
2017-11-05T01:41:44.102Z,20.9
2017-11-05T01:42:12.154Z,20.83
2017-11-05T01:42:40.239Z,20.86
2017-11-05T01:43:08.317Z,20.71
2017-11-05T01:43:36.368Z,20.75
2017-11-05T01:44:04.521Z,20.71
2017-11-05T01:44:32.659Z,20.59
2017-11-05T01:45:00.733Z,20.58
2017-11-05T01:45:28.910Z,20.58
2017-11-05T01:45:56.931Z,20.53
2017-11-05T01:46:24.950Z,20.52
2017-11-05T01:46:53.124Z,20.53
2017-11-05T01:47:21.107Z,20.55
2017-11-05T01:47:49.248Z,20.55
2017-11-05T01:48:17.434Z,20.53
2017-11-05T01:48:45.490Z,20.6
2017-11-05T01:49:13.563Z,20.58
2017-11-05T01:49:41.448Z,20.63
2017-11-05T01:50:09.500Z,20.66
2017-11-05T01:50:37.623Z,20.75
2017-11-05T01:51:05.726Z,20.77
2017-11-05T01:51:33.876Z,20.75
2017-11-05T01:52:02.077Z,20.75
2017-11-05T01:52:30.110Z,20.75
2017-11-05T01:52:58.330Z,20.74
2017-11-05T01:53:26.506Z,20.75
2017-11-05T01:53:54.475Z,20.8
2017-11-05T01:54:22.526Z,20.82
2017-11-05T01:54:50.474Z,20.71
2017-11-05T01:55:18.510Z,20.85
2017-11-05T01:55:46.995Z,20.86
2017-11-05T01:56:15.066Z,20.82
2017-11-05T01:56:43.201Z,20.83
2017-11-05T01:57:11.466Z,20.78
2017-11-05T01:57:39.598Z,20.78
2017-11-05T01:58:07.628Z,20.8
2017-11-05T01:58:35.705Z,20.82
2017-11-05T01:59:03.872Z,20.82
2017-11-05T01:59:31.928Z,20.86
2017-11-05T01:59:59.996Z,20.78
2017-11-05T02:00:28.421Z,20.89
2017-11-05T02:00:56.581Z,20.88
2017-11-05T02:01:24.706Z,20.88
2017-11-05T02:01:52.871Z,20.9
2017-11-05T02:02:21.026Z,20.85
2017-11-05T02:02:49.268Z,20.9
2017-11-05T02:03:17.522Z,20.88
2017-11-05T02:03:45.919Z,20.82
2017-11-05T02:04:13.974Z,20.86
2017-11-05T02:04:42.115Z,20.73
2017-11-05T02:05:09.981Z,20.77
2017-11-05T02:05:38.177Z,20.73
2017-11-05T02:06:06.145Z,20.75
2017-11-05T02:06:34.100Z,20.73
2017-11-05T02:07:02.144Z,20.66
2017-11-05T02:07:30.080Z,20.67
2017-11-05T02:07:58.114Z,20.64
2017-11-05T02:08:25.949Z,20.66
2017-11-05T02:08:54.001Z,20.63
2017-11-05T02:09:22.069Z,20.64
2017-11-05T02:09:49.985Z,20.64
2017-11-05T02:10:18.049Z,20.59
2017-11-05T02:10:46.105Z,20.64
2017-11-05T02:11:14.204Z,20.59
2017-11-05T02:11:42.396Z,20.59
2017-11-05T02:12:10.457Z,20.52
2017-11-05T02:12:38.566Z,20.53
2017-11-05T02:13:06.445Z,20.56
2017-11-05T02:13:34.626Z,20.53
2017-11-05T02:14:02.853Z,20.53
2017-11-05T02:14:31.670Z,20.53
2017-11-05T02:14:59.720Z,20.44
2017-11-05T02:15:27.758Z,20.44
2017-11-05T02:15:55.713Z,20.42
2017-11-05T02:16:23.806Z,20.4
2017-11-05T02:16:51.763Z,20.39
2017-11-05T02:17:19.696Z,20.4
2017-11-05T02:17:47.956Z,20.44
2017-11-05T02:18:16.414Z,20.44
2017-11-05T02:18:44.696Z,20.4
2017-11-05T02:19:13.133Z,20.44
2017-11-05T02:19:41.707Z,20.29
2017-11-05T02:20:10.278Z,20.42
2017-11-05T02:20:38.531Z,20.29
2017-11-05T02:21:06.978Z,20.36
2017-11-05T02:21:35.541Z,20.33
2017-11-05T02:22:03.956Z,20.39
2017-11-05T02:22:32.364Z,20.4
2017-11-05T02:23:00.546Z,20.37
2017-11-05T02:23:28.981Z,20.42
2017-11-05T02:23:57.313Z,20.44
2017-11-05T02:24:25.855Z,20.4
2017-11-05T02:24:54.452Z,20.42
2017-11-05T02:25:22.682Z,20.37
2017-11-05T02:25:51.093Z,20.46
2017-11-05T02:26:19.465Z,20.4
2017-11-05T02:26:47.795Z,20.39
2017-11-05T02:27:16.226Z,20.5
2017-11-05T02:27:44.776Z,20.42
2017-11-05T02:28:13.106Z,20.42
2017-11-05T02:28:41.649Z,20.48
2017-11-05T02:29:09.970Z,20.42
2017-11-05T02:29:38.249Z,20.44
2017-11-05T02:30:06.224Z,20.46
2017-11-05T02:30:34.342Z,20.4
2017-11-05T02:31:02.983Z,20.49
2017-11-05T02:31:31.307Z,20.4
2017-11-05T02:31:59.944Z,20.56
2017-11-05T02:32:28.156Z,20.53
2017-11-05T02:32:56.664Z,20.5
2017-11-05T02:33:25.211Z,20.58
2017-11-05T02:33:53.768Z,20.63
2017-11-05T02:34:22.291Z,20.6
2017-11-05T02:34:50.952Z,20.6
2017-11-05T02:35:19.334Z,20.63
2017-11-05T02:35:47.982Z,20.63
2017-11-05T02:36:16.467Z,20.66
2017-11-05T02:36:44.903Z,20.64
2017-11-05T02:37:12.954Z,20.71
2017-11-05T02:37:41.088Z,20.77
2017-11-05T02:38:09.229Z,20.75
2017-11-05T02:38:37.302Z,20.71
2017-11-05T02:39:05.425Z,20.77
2017-11-05T02:39:33.252Z,20.78
2017-11-05T02:40:01.297Z,20.78
2017-11-05T02:40:29.334Z,20.85
2017-11-05T02:40:57.482Z,20.8
2017-11-05T02:41:25.688Z,20.82
2017-11-05T02:41:54.097Z,20.85
2017-11-05T02:42:22.840Z,20.75
2017-11-05T02:42:51.633Z,20.77
2017-11-05T02:43:20.202Z,20.89
2017-11-05T02:43:48.903Z,20.82
2017-11-05T02:44:17.346Z,20.88
2017-11-05T02:44:46.088Z,20.83
2017-11-05T02:45:14.631Z,20.88
2017-11-05T02:45:43.264Z,20.86
2017-11-05T02:46:11.773Z,20.88
2017-11-05T02:46:40.395Z,20.93
2017-11-05T02:47:08.807Z,20.88
2017-11-05T02:47:37.362Z,20.88
2017-11-05T02:48:05.869Z,20.89
2017-11-05T02:48:34.384Z,20.89
2017-11-05T02:49:03.122Z,20.86
2017-11-05T02:49:31.767Z,21.03
2017-11-05T02:50:00.376Z,21.01
2017-11-05T02:50:29.113Z,21.01
2017-11-05T02:50:57.726Z,20.92
2017-11-05T02:51:26.597Z,20.92
2017-11-05T02:51:55.435Z,20.9
2017-11-05T02:52:24.144Z,20.89
2017-11-05T02:52:52.694Z,20.86
2017-11-05T02:53:21.576Z,20.89
2017-11-05T02:53:50.291Z,20.83
2017-11-05T02:54:18.814Z,20.85
2017-11-05T02:54:47.349Z,20.88
2017-11-05T02:55:15.972Z,20.86
2017-11-05T02:55:44.474Z,20.85
2017-11-05T02:56:13.085Z,20.93
2017-11-05T02:56:41.748Z,20.83
2017-11-05T02:57:11.072Z,20.9
2017-11-05T02:57:39.903Z,20.92
2017-11-05T02:58:08.620Z,20.92
2017-11-05T02:58:37.095Z,20.93
2017-11-05T02:59:05.880Z,20.9
2017-11-05T02:59:34.608Z,20.92
2017-11-05T03:00:03.525Z,20.95
2017-11-05T03:00:32.375Z,21.01
2017-11-05T03:01:01.353Z,21.04
2017-11-05T03:01:30.176Z,21.03
2017-11-05T03:01:58.920Z,20.98
2017-11-05T03:02:27.512Z,21.14
2017-11-05T03:02:56.163Z,21.14
2017-11-05T03:03:24.990Z,21.1
2017-11-05T03:03:53.711Z,21.1
2017-11-05T03:04:22.275Z,21.15
2017-11-05T03:04:50.924Z,21.11
2017-11-05T03:05:19.648Z,21.17
2017-11-05T03:05:48.329Z,21.25
2017-11-05T03:06:17.009Z,21.22
2017-11-05T03:06:45.708Z,21.2
2017-11-05T03:07:14.674Z,21.28
2017-11-05T03:07:43.434Z,21.26
2017-11-05T03:08:12.281Z,21.32
2017-11-05T03:08:41.014Z,21.3
2017-11-05T03:09:09.654Z,21.33
2017-11-05T03:09:38.403Z,21.29
2017-11-05T03:10:07.135Z,21.35
2017-11-05T03:10:35.820Z,21.28
2017-11-05T03:11:04.388Z,21.35
2017-11-05T03:11:32.956Z,21.33
2017-11-05T03:12:01.756Z,21.35
2017-11-05T03:12:30.569Z,21.35
2017-11-05T03:12:59.431Z,21.33
2017-11-05T03:13:28.422Z,21.4
2017-11-05T03:13:57.293Z,21.45
2017-11-05T03:14:26.100Z,21.41
2017-11-05T03:14:54.711Z,21.44
2017-11-05T03:15:23.430Z,21.41
2017-11-05T03:15:52.005Z,21.47
2017-11-05T03:16:20.687Z,21.41
2017-11-05T03:16:49.359Z,21.5
2017-11-05T03:17:18.505Z,21.45
2017-11-05T03:17:47.400Z,21.41
2017-11-05T03:18:16.057Z,21.48
2017-11-05T03:18:45.514Z,21.43
2017-11-05T03:19:14.086Z,21.4
2017-11-05T03:19:42.766Z,21.43
2017-11-05T03:20:11.442Z,21.41
2017-11-05T03:20:40.160Z,21.38
2017-11-05T03:21:08.833Z,21.32
2017-11-05T03:21:37.699Z,21.38
2017-11-05T03:22:06.460Z,21.32
2017-11-05T03:22:35.181Z,21.38
2017-11-05T03:23:03.821Z,21.3
2017-11-05T03:23:32.430Z,21.38
2017-11-05T03:24:01.179Z,21.32
2017-11-05T03:24:29.716Z,21.37
2017-11-05T03:24:58.415Z,21.33
2017-11-05T03:25:27.441Z,21.35
2017-11-05T03:25:56.047Z,21.37
2017-11-05T03:26:24.813Z,21.28
2017-11-05T03:26:53.382Z,21.3
2017-11-05T03:27:21.899Z,21.28
2017-11-05T03:27:50.352Z,21.32
2017-11-05T03:28:19.040Z,21.3
2017-11-05T03:28:47.642Z,21.29
2017-11-05T03:29:16.049Z,21.33
2017-11-05T03:29:44.479Z,21.35
2017-11-05T03:30:13.132Z,21.37
2017-11-05T03:30:41.745Z,21.3
2017-11-05T03:31:10.172Z,21.33
2017-11-05T03:31:38.790Z,21.32
2017-11-05T03:32:07.292Z,21.35
2017-11-05T03:32:35.834Z,21.33
2017-11-05T03:33:04.421Z,21.29
2017-11-05T03:33:33.005Z,21.29
2017-11-05T03:34:01.701Z,21.33
2017-11-05T03:34:30.222Z,21.37
2017-11-05T03:34:58.782Z,21.33
2017-11-05T03:35:27.268Z,21.35
2017-11-05T03:35:55.775Z,21.3
2017-11-05T03:36:24.414Z,21.37
2017-11-05T03:36:53.125Z,21.35
2017-11-05T03:37:21.723Z,21.33
2017-11-05T03:37:50.292Z,21.37
2017-11-05T03:38:18.917Z,21.35
2017-11-05T03:38:47.755Z,21.37
2017-11-05T03:39:16.547Z,21.37
2017-11-05T03:39:45.210Z,21.37
2017-11-05T03:40:13.915Z,21.35
2017-11-05T03:40:42.403Z,21.32
2017-11-05T03:41:10.828Z,21.32
2017-11-05T03:41:39.483Z,21.33
2017-11-05T03:42:08.042Z,21.35
2017-11-05T03:42:36.467Z,21.38
2017-11-05T03:43:05.148Z,21.44
2017-11-05T03:43:33.821Z,21.37
2017-11-05T03:44:02.301Z,21.38
2017-11-05T03:44:30.969Z,21.38
2017-11-05T03:44:59.657Z,21.38
2017-11-05T03:45:28.283Z,21.41
2017-11-05T03:45:56.981Z,21.32
2017-11-05T03:46:25.605Z,21.32
2017-11-05T03:46:54.120Z,21.35
2017-11-05T03:47:22.734Z,21.37
2017-11-05T03:47:51.261Z,21.32
2017-11-05T03:48:19.747Z,21.32
2017-11-05T03:48:48.285Z,21.37
2017-11-05T03:49:16.875Z,21.37
2017-11-05T03:49:45.498Z,21.4
2017-11-05T03:50:14.133Z,21.4
2017-11-05T03:50:42.558Z,21.37
2017-11-05T03:51:10.989Z,21.37
2017-11-05T03:51:39.602Z,21.33
2017-11-05T03:52:08.131Z,21.32
2017-11-05T03:52:36.414Z,21.32
2017-11-05T03:53:05.035Z,21.33
2017-11-05T03:53:33.660Z,21.32
2017-11-05T03:54:02.182Z,21.26
2017-11-05T03:54:30.690Z,21.28
2017-11-05T03:54:59.191Z,21.29
2017-11-05T03:55:27.737Z,21.26
2017-11-05T03:55:56.373Z,21.29
2017-11-05T03:56:25.041Z,21.28
2017-11-05T03:56:53.537Z,21.23
2017-11-05T03:57:22.128Z,21.28
2017-11-05T03:57:50.543Z,21.26
2017-11-05T03:58:19.118Z,21.26
2017-11-05T03:58:47.636Z,21.22
2017-11-05T03:59:16.257Z,21.2
2017-11-05T03:59:44.877Z,21.2
2017-11-05T04:00:13.468Z,21.23
2017-11-05T04:00:42.085Z,21.19
2017-11-05T04:01:10.611Z,21.17
2017-11-05T04:01:39.230Z,21.17
2017-11-05T04:02:08.016Z,21.08
2017-11-05T04:02:36.774Z,21.11
2017-11-05T04:03:05.385Z,21.19
2017-11-05T04:03:34.056Z,21.11
2017-11-05T04:04:02.638Z,21.14
2017-11-05T04:04:31.143Z,21.13
2017-11-05T04:04:59.669Z,21.05
2017-11-05T04:05:28.283Z,21.07
2017-11-05T04:05:56.810Z,21.07
2017-11-05T04:06:25.417Z,21.01
2017-11-05T04:06:54.137Z,21.05
2017-11-05T04:07:22.643Z,21
2017-11-05T04:07:51.301Z,21.07
2017-11-05T04:08:20.745Z,21.01
2017-11-05T04:08:49.170Z,21.04
2017-11-05T04:09:17.600Z,21.1
2017-11-05T04:09:46.003Z,21.01
2017-11-05T04:10:14.629Z,21.05
2017-11-05T04:10:43.223Z,21.01
2017-11-05T04:11:38.513Z,21.03
2017-11-05T04:12:07.135Z,21.01
2017-11-05T04:12:35.752Z,21.05
2017-11-05T04:13:04.359Z,20.98
2017-11-05T04:13:32.849Z,21.08
2017-11-05T04:14:01.454Z,21.1
2017-11-05T04:14:29.772Z,21.04
2017-11-05T04:14:58.394Z,20.93
2017-11-05T04:15:50.761Z,20.98
2017-11-05T04:16:19.307Z,21.08
2017-11-05T04:16:48.082Z,20.98
2017-11-05T04:17:17.032Z,21
2017-11-05T04:17:45.782Z,20.95
2017-11-05T04:18:14.375Z,20.98
2017-11-05T04:18:43.085Z,21
2017-11-05T04:19:11.874Z,21.07
2017-11-05T04:19:40.478Z,21.01
2017-11-05T04:20:08.904Z,20.93
2017-11-05T04:20:37.525Z,21.08
2017-11-05T04:21:06.131Z,21
2017-11-05T04:21:34.655Z,20.93
2017-11-05T04:22:03.210Z,21.04
2017-11-05T04:22:31.845Z,21.05
2017-11-05T04:23:00.200Z,20.98
2017-11-05T04:23:28.840Z,21.01
2017-11-05T04:23:57.355Z,20.92
2017-11-05T04:24:25.668Z,21
2017-11-05T04:24:54.107Z,20.93
2017-11-05T04:25:22.788Z,20.88
2017-11-05T04:25:51.326Z,20.89
2017-11-05T04:26:19.864Z,20.9
2017-11-05T04:26:48.454Z,20.85
2017-11-05T04:27:16.970Z,20.82
2017-11-05T04:27:46.235Z,20.85
2017-11-05T04:28:14.764Z,20.88
2017-11-05T04:28:43.321Z,20.88
2017-11-05T04:29:13.630Z,20.8
2017-11-05T04:29:50.988Z,20.88
2017-11-05T04:30:19.537Z,20.86
2017-11-05T04:30:48.061Z,20.77
2017-11-05T04:31:16.602Z,20.89
2017-11-05T04:31:45.110Z,20.86
2017-11-05T04:32:13.637Z,20.77
2017-11-05T04:32:42.259Z,20.88
2017-11-05T04:33:10.847Z,20.82
2017-11-05T04:33:39.460Z,20.85
2017-11-05T04:34:07.994Z,20.82
2017-11-05T04:34:36.410Z,20.89
2017-11-05T04:35:04.854Z,20.86
2017-11-05T04:35:33.513Z,20.86
2017-11-05T04:36:02.051Z,20.89
2017-11-05T04:36:30.571Z,20.85
2017-11-05T04:36:59.170Z,20.89
2017-11-05T04:37:27.588Z,20.85
2017-11-05T04:37:56.094Z,20.85
2017-11-05T04:38:24.592Z,20.89
2017-11-05T04:38:52.922Z,20.9
2017-11-05T04:39:21.340Z,20.93
2017-11-05T04:39:50.031Z,20.98
2017-11-05T04:40:18.584Z,20.85
2017-11-05T04:40:49.949Z,20.98
2017-11-05T04:41:38.937Z,20.89
2017-11-05T04:42:07.392Z,20.95
2017-11-05T04:42:36.139Z,20.92
2017-11-05T04:43:05.106Z,21
2017-11-05T04:43:34.177Z,21
2017-11-05T04:44:02.959Z,20.96
2017-11-05T04:44:31.951Z,21
2017-11-05T04:45:00.543Z,20.95
2017-11-05T04:45:29.164Z,20.93
2017-11-05T04:45:58.021Z,21
2017-11-05T04:46:26.989Z,21.05
2017-11-05T04:46:55.661Z,21.03
2017-11-05T04:47:24.404Z,21.03
2017-11-05T04:47:53.171Z,21.01
2017-11-05T04:48:21.901Z,21.05
2017-11-05T04:48:50.426Z,21.01
2017-11-05T04:49:19.064Z,20.98
2017-11-05T04:49:47.506Z,21.05
2017-11-05T04:50:16.110Z,21.1
2017-11-05T04:50:44.730Z,21
2017-11-05T04:51:13.373Z,21.01
2017-11-05T04:51:42.006Z,21.07
2017-11-05T04:52:10.536Z,21.03
2017-11-05T04:52:39.210Z,21.08
2017-11-05T04:53:07.932Z,21.08
2017-11-05T04:53:36.520Z,21.11
2017-11-05T04:54:05.262Z,21.14
2017-11-05T04:54:34.047Z,21.08
2017-11-05T04:55:02.747Z,21.13
2017-11-05T04:55:31.332Z,21.19
2017-11-05T04:56:00.079Z,21.1
2017-11-05T04:56:28.602Z,21.22
2017-11-05T04:56:57.210Z,21.14
2017-11-05T04:57:26.036Z,21.2
2017-11-05T04:57:54.658Z,21.17
2017-11-05T04:58:23.322Z,21.13
2017-11-05T04:58:52.007Z,21.1
2017-11-05T04:59:20.594Z,21.2
2017-11-05T04:59:49.318Z,21.14
2017-11-05T05:00:18.182Z,21.13
2017-11-05T05:00:47.192Z,21.2
2017-11-05T05:01:15.979Z,21.15
2017-11-05T05:01:44.775Z,21.2
2017-11-05T05:02:13.677Z,21.2
2017-11-05T05:02:42.404Z,21.19
2017-11-05T05:03:11.019Z,21.26
2017-11-05T05:03:39.877Z,21.2
2017-11-05T05:04:08.526Z,21.15
2017-11-05T05:04:37.438Z,21.22
2017-11-05T05:05:06.035Z,21.14
2017-11-05T05:05:34.679Z,21.22
2017-11-05T05:06:03.448Z,21.22
2017-11-05T05:06:32.165Z,21.28
2017-11-05T05:07:00.873Z,21.17
2017-11-05T05:07:29.526Z,21.3
2017-11-05T05:07:58.597Z,21.23
2017-11-05T05:08:27.614Z,21.17
2017-11-05T05:08:56.400Z,21.28
2017-11-05T05:09:25.204Z,21.22
2017-11-05T05:09:54.049Z,21.29
2017-11-05T05:10:22.800Z,21.15
2017-11-05T05:10:51.666Z,21.19
2017-11-05T05:11:20.488Z,21.19
2017-11-05T05:11:49.005Z,21.2
2017-11-05T05:12:17.795Z,21.19
2017-11-05T05:12:46.713Z,21.2
2017-11-05T05:13:15.374Z,21.15
2017-11-05T05:13:44.295Z,21.13
2017-11-05T05:14:12.947Z,21.11
2017-11-05T05:14:41.722Z,21.15
2017-11-05T05:15:10.660Z,21.19
2017-11-05T05:15:39.443Z,21.08
2017-11-05T05:16:08.219Z,21.08
2017-11-05T05:16:37.050Z,21.08
2017-11-05T05:17:06.144Z,21.07
2017-11-05T05:17:34.921Z,21.01
2017-11-05T05:18:03.810Z,21.11
2017-11-05T05:18:32.663Z,21.03
2017-11-05T05:19:01.393Z,21.05
2017-11-05T05:19:30.191Z,21.07
2017-11-05T05:19:58.851Z,21.07
2017-11-05T05:20:27.515Z,21.01
2017-11-05T05:20:56.487Z,20.98
2017-11-05T05:21:25.377Z,21.04
2017-11-05T05:21:54.073Z,21.05
2017-11-05T05:22:22.746Z,21.04
2017-11-05T05:22:51.487Z,21.05
2017-11-05T05:23:20.369Z,21.05
2017-11-05T05:23:49.057Z,21.05
2017-11-05T05:24:17.792Z,21.04
2017-11-05T05:24:46.642Z,21.1
2017-11-05T05:25:15.312Z,21.01
2017-11-05T05:25:43.831Z,21.04
2017-11-05T05:26:12.381Z,21
2017-11-05T05:26:41.090Z,21.01
2017-11-05T05:27:09.860Z,21.01
2017-11-05T05:27:38.834Z,21
2017-11-05T05:28:07.645Z,21
2017-11-05T05:28:36.281Z,20.98
2017-11-05T05:29:05.066Z,21.03
2017-11-05T05:29:33.945Z,21.03
2017-11-05T05:30:02.522Z,21.08
2017-11-05T05:30:31.366Z,21.01
2017-11-05T05:31:00.377Z,21.13
2017-11-05T05:31:29.039Z,21.17
2017-11-05T05:31:57.865Z,21.17
2017-11-05T05:32:26.934Z,21.13
2017-11-05T05:32:55.870Z,21.17
2017-11-05T05:33:24.757Z,21.22
2017-11-05T05:33:53.608Z,21.2
2017-11-05T05:34:22.174Z,21.23
2017-11-05T05:34:50.936Z,21.22
2017-11-05T05:35:19.622Z,21.3
2017-11-05T05:35:48.238Z,21.32
2017-11-05T05:36:17.131Z,21.29
2017-11-05T05:36:46.113Z,21.29
2017-11-05T05:37:14.894Z,21.3
2017-11-05T05:37:43.693Z,21.33
2017-11-05T05:38:12.417Z,21.33
2017-11-05T05:38:40.993Z,21.4
2017-11-05T05:39:09.920Z,21.44
2017-11-05T05:39:38.561Z,21.38
2017-11-05T05:40:07.336Z,21.5
2017-11-05T05:40:35.892Z,21.45
2017-11-05T05:41:04.395Z,21.48
2017-11-05T05:41:33.040Z,21.48
2017-11-05T05:42:01.620Z,21.56
2017-11-05T05:42:30.253Z,21.54
2017-11-05T05:42:59.109Z,21.48
2017-11-05T05:43:27.818Z,21.54
2017-11-05T05:43:56.495Z,21.51
2017-11-05T05:44:25.077Z,21.54
2017-11-05T05:44:54.078Z,21.56
2017-11-05T05:45:22.830Z,21.51
2017-11-05T05:45:51.540Z,21.59
2017-11-05T05:46:20.364Z,21.59
2017-11-05T05:46:49.013Z,21.5
2017-11-05T05:47:17.618Z,21.5
2017-11-05T05:47:46.496Z,21.53
2017-11-05T05:48:15.278Z,21.44
2017-11-05T05:48:43.991Z,21.54
2017-11-05T05:49:12.673Z,21.45
2017-11-05T05:49:41.467Z,21.41
2017-11-05T05:50:10.258Z,21.44
2017-11-05T05:50:39.847Z,21.44
2017-11-05T05:51:08.517Z,21.41
2017-11-05T05:51:37.108Z,21.4
2017-11-05T05:52:05.796Z,21.33
2017-11-05T05:52:34.596Z,21.35
2017-11-05T05:53:03.199Z,21.29
2017-11-05T05:53:31.826Z,21.28
2017-11-05T05:54:00.492Z,21.33
2017-11-05T05:54:29.337Z,21.33
2017-11-05T05:54:58.015Z,21.32
2017-11-05T05:55:26.642Z,21.29
2017-11-05T05:55:55.320Z,21.33
2017-11-05T05:56:24.082Z,21.33
2017-11-05T05:56:52.730Z,21.29
2017-11-05T05:57:21.397Z,21.28
2017-11-05T05:57:50.244Z,21.3
2017-11-05T05:58:18.936Z,21.3
2017-11-05T05:58:47.523Z,21.33
2017-11-05T05:59:16.420Z,21.35
2017-11-05T05:59:45.044Z,21.35
2017-11-05T06:00:13.798Z,21.29
2017-11-05T06:00:42.656Z,21.35
2017-11-05T06:01:11.188Z,21.4
2017-11-05T06:01:39.829Z,21.38
2017-11-05T06:02:08.560Z,21.4
2017-11-05T06:02:37.231Z,21.45
2017-11-05T06:03:06.028Z,21.51
2017-11-05T06:03:34.638Z,21.44
2017-11-05T06:04:03.310Z,21.5
2017-11-05T06:04:31.648Z,21.47
2017-11-05T06:05:00.458Z,21.44
2017-11-05T06:05:29.045Z,21.45
2017-11-05T06:05:57.683Z,21.51
2017-11-05T06:06:26.397Z,21.48
2017-11-05T06:06:55.186Z,21.48
2017-11-05T06:07:23.772Z,21.43
2017-11-05T06:07:52.375Z,21.41
2017-11-05T06:08:21.091Z,21.45
2017-11-05T06:08:49.493Z,21.59
2017-11-05T06:09:18.185Z,21.54
2017-11-05T06:09:46.906Z,21.53
2017-11-05T06:10:15.670Z,21.56